Time;durP1;ratioP1;P1;durP2;ratioP2;P2;SDS_P1;SDS_P2;PMS_P1;PMS_P2;Temp;Humidity;BMP_temperature;BMP_pressure;BME280_temperature;BME280_humidity;BME280_pressure;Samples;Min_cycle;Max_cycle;Signal;HPM_P1;HPM_P2
2024/01/28 00:00:35;;;;;;;0.90;0.90;;;;;;;-1.43;100.00;101059.66;5041962;28;20410;-59
2024/01/28 00:03:03;;;;;;;0.90;0.90;;;;;;;-1.61;100.00;101074.25;5025054;28;20490;-59
2024/01/28 00:05:30;;;;;;;0.90;0.90;;;;;;;-1.83;100.00;101061.91;5042428;28;20091;-59
2024/01/28 00:07:59;;;;;;;0.90;0.90;;;;;;;-1.84;100.00;101062.88;5002939;28;20091;-59
2024/01/28 00:10:26;;;;;;;0.85;0.85;;;;;;;-1.88;100.00;101057.00;5041389;28;20052;-60
2024/01/28 00:12:54;;;;;;;0.90;0.90;;;;;;;-2.03;100.00;101053.75;5041410;28;20048;-59
2024/01/28 00:15:21;;;;;;;0.77;0.77;;;;;;;-2.11;100.00;101055.28;5044086;28;20065;-59
2024/01/28 00:17:48;;;;;;;0.90;0.90;;;;;;;-2.20;100.00;101056.81;5042487;28;20045;-59
2024/01/28 00:20:15;;;;;;;0.98;0.98;;;;;;;-2.22;100.00;101056.09;5041799;28;20048;-60
2024/01/28 00:22:42;;;;;;;0.60;0.60;;;;;;;-2.38;100.00;101051.16;5042755;28;20045;-59
2024/01/28 00:25:12;;;;;;;0.80;0.80;;;;;;;-2.38;100.00;101041.47;5042157;28;20040;-59
2024/01/28 00:27:39;;;;;;;0.93;0.93;;;;;;;-2.11;100.00;101043.00;5039328;28;20048;-59
2024/01/28 00:30:09;;;;;;;0.90;0.90;;;;;;;-1.94;100.00;101040.88;5043345;28;20048;-59
2024/01/28 00:32:36;;;;;;;0.88;0.88;;;;;;;-2.08;100.00;101031.41;5040611;28;20045;-59
2024/01/28 00:35:04;;;;;;;1.00;1.00;;;;;;;-2.15;100.00;101028.41;5038352;28;20148;-59
2024/01/28 00:37:31;;;;;;;0.90;0.90;;;;;;;-2.10;100.00;101021.00;5043401;28;20044;-59
2024/01/28 00:39:58;;;;;;;0.90;0.90;;;;;;;-2.22;100.00;101017.53;5041404;28;20045;-59
2024/01/28 00:42:26;;;;;;;1.00;1.00;;;;;;;-2.22;100.00;101016.69;5043271;28;20105;-59
2024/01/28 00:44:53;;;;;;;0.80;0.80;;;;;;;-2.32;100.00;101015.69;5041429;28;20048;-59
2024/01/28 00:47:21;;;;;;;0.80;0.80;;;;;;;-2.40;100.00;101013.66;5040811;28;20040;-59
2024/01/28 00:49:48;;;;;;;0.80;0.80;;;;;;;-2.33;100.00;101024.53;5023899;28;20547;-59
2024/01/28 00:52:15;;;;;;;0.80;0.80;;;;;;;-2.30;100.00;101024.31;5024658;28;20045;-59
2024/01/28 00:54:43;;;;;;;0.80;0.80;;;;;;;-2.32;100.00;101019.19;5037591;28;20068;-59
2024/01/28 00:57:11;;;;;;;0.90;0.90;;;;;;;-2.38;100.00;101017.84;5038499;28;20049;-59
2024/01/28 00:59:38;;;;;;;0.90;0.90;;;;;;;-2.40;100.00;101017.13;5022040;28;20187;-58
2024/01/28 01:02:05;;;;;;;0.95;0.95;;;;;;;-2.45;100.00;101011.38;5018454;28;20053;-58
2024/01/28 01:04:33;;;;;;;0.85;0.85;;;;;;;-2.43;100.00;101006.84;5040866;28;20041;-58
2024/01/28 01:07:01;;;;;;;0.90;0.90;;;;;;;-2.45;100.00;101006.13;5035933;28;20045;-58
2024/01/28 01:09:28;;;;;;;1.00;1.00;;;;;;;-2.26;100.00;100996.88;5010153;28;20053;-58
2024/01/28 01:11:55;;;;;;;0.80;0.80;;;;;;;-2.26;100.00;100999.50;5037498;28;20105;-58
2024/01/28 01:14:22;;;;;;;0.85;0.85;;;;;;;-2.20;100.00;100999.00;5038388;28;20073;-58
2024/01/28 01:16:49;;;;;;;0.88;0.88;;;;;;;-2.12;100.00;100991.41;5042400;28;20053;-58
2024/01/28 01:19:17;;;;;;;0.90;0.90;;;;;;;-2.14;100.00;100988.06;5042902;28;20060;-57
2024/01/28 01:21:49;;;;;;;1.10;1.10;;;;;;;-2.08;100.00;100992.00;5022220;28;20056;-59
2024/01/28 01:24:17;;;;;;;0.80;0.80;;;;;;;-2.07;100.00;100989.25;5042560;28;20044;-58
2024/01/28 01:26:44;;;;;;;1.00;1.00;;;;;;;-2.21;100.00;100981.59;5042031;28;20102;-58
2024/01/28 01:29:11;;;;;;;0.88;0.88;;;;;;;-2.36;100.00;100975.72;5040519;28;20530;-58
2024/01/28 01:31:38;;;;;;;0.80;0.80;;;;;;;-2.29;100.00;100976.09;5041996;28;20036;-58
2024/01/28 01:34:05;;;;;;;0.82;0.82;;;;;;;-2.30;100.00;100971.78;5038947;28;21918;-58
2024/01/28 01:36:32;;;;;;;0.88;0.88;;;;;;;-2.34;100.00;100976.44;5042413;28;20079;-58
2024/01/28 01:39:00;;;;;;;0.88;0.88;;;;;;;-2.65;100.00;100976.09;5038436;28;20098;-58
2024/01/28 01:41:28;;;;;;;0.90;0.90;;;;;;;-2.56;100.00;100982.47;5041724;28;20064;-58
2024/01/28 01:43:55;;;;;;;0.90;0.90;;;;;;;-2.43;100.00;100977.13;5039541;28;20045;-58
2024/01/28 01:46:22;;;;;;;0.82;0.82;;;;;;;-2.44;100.00;100971.03;5024029;28;20060;-58
2024/01/28 01:48:49;;;;;;;0.80;0.80;;;;;;;-1.80;100.00;100959.16;5021768;28;20069;-57
2024/01/28 01:51:16;;;;;;;1.00;1.00;;;;;;;-1.55;100.00;100958.91;5042071;28;20055;-57
2024/01/28 01:53:44;;;;;;;1.00;1.00;;;;;;;-1.81;100.00;100958.31;5040239;28;20080;-58
2024/01/28 01:56:12;;;;;;;1.00;1.00;;;;;;;-2.18;100.00;100962.97;5039992;28;20496;-58
2024/01/28 01:58:39;;;;;;;0.88;0.88;;;;;;;-2.29;100.00;100966.41;5039379;28;20048;-57
2024/01/28 02:01:07;;;;;;;0.93;0.93;;;;;;;-2.45;100.00;100958.03;5041024;28;20067;-58
2024/01/28 02:03:34;;;;;;;1.00;1.00;;;;;;;-2.48;100.00;100955.63;5023168;28;20124;-58
2024/01/28 02:06:01;;;;;;;0.90;0.90;;;;;;;-2.58;100.00;100963.34;5040227;28;20079;-58
2024/01/28 02:08:28;;;;;;;1.00;1.00;;;;;;;-2.56;100.00;100961.47;5025345;28;20052;-58
2024/01/28 02:10:57;;;;;;;1.00;1.00;;;;;;;-2.60;100.00;100962.63;5038933;28;20080;-57
2024/01/28 02:13:25;;;;;;;1.00;1.00;;;;;;;-2.71;100.00;100955.56;5042638;28;20060;-57
2024/01/28 02:15:52;;;;;;;1.00;1.00;;;;;;;-2.75;100.00;100958.53;5042061;28;20532;-58
2024/01/28 02:18:19;;;;;;;0.90;0.90;;;;;;;-2.77;100.00;100955.19;5023429;28;20044;-58
2024/01/28 02:20:46;;;;;;;0.90;0.90;;;;;;;-2.55;100.00;100963.13;5041599;28;20061;-58
2024/01/28 02:23:18;;;;;;;1.00;1.00;;;;;;;-2.51;100.00;100959.31;5042430;28;20114;-57
2024/01/28 02:25:45;;;;;;;1.00;1.00;;;;;;;-2.54;100.00;100954.31;5046262;28;20128;-58
2024/01/28 02:28:12;;;;;;;0.98;0.98;;;;;;;-1.79;100.00;100942.44;5026722;28;20044;-57
2024/01/28 02:30:39;;;;;;;1.00;1.00;;;;;;;-2.14;100.00;100948.66;5020299;28;20582;-58
2024/01/28 02:33:06;;;;;;;1.00;1.00;;;;;;;-2.34;100.00;100950.19;5040538;28;20049;-57
2024/01/28 02:35:33;;;;;;;0.90;0.90;;;;;;;-2.51;100.00;100943.56;5040217;28;20045;-58
2024/01/28 02:38:00;;;;;;;1.00;1.00;;;;;;;-2.78;100.00;100945.66;5042247;28;20064;-58
2024/01/28 02:40:30;;;;;;;0.90;0.90;;;;;;;-2.88;100.00;100954.19;5025574;28;20049;-58
2024/01/28 02:42:57;;;;;;;1.05;1.05;;;;;;;-2.84;100.00;100963.53;5045121;28;20415;-58
2024/01/28 02:45:24;;;;;;;1.02;1.02;;;;;;;-2.90;100.00;100963.97;5028766;28;20559;-58
2024/01/28 02:47:51;;;;;;;0.93;0.93;;;;;;;-3.10;100.00;100956.72;5044585;28;20041;-58
2024/01/28 02:50:18;;;;;;;0.88;0.88;;;;;;;-3.03;100.00;100952.69;5045205;28;20090;-58
2024/01/28 02:52:45;;;;;;;0.90;0.90;;;;;;;-2.80;100.00;100961.50;5041732;28;20427;-58
2024/01/28 02:55:16;;;;;;;0.90;0.90;;;;;;;-2.47;100.00;100955.53;5045615;28;20041;-58
2024/01/28 02:57:44;;;;;;;0.98;0.98;;;;;;;-2.69;100.00;100955.47;5021934;28;20061;-58
2024/01/28 03:00:12;;;;;;;0.90;0.90;;;;;;;-2.65;100.00;100954.25;5045411;28;20142;-58
2024/01/28 03:02:40;;;;;;;1.00;1.00;;;;;;;-2.65;100.00;100951.63;5044670;28;20048;-58
2024/01/28 03:05:10;;;;;;;0.90;0.90;;;;;;;-2.73;100.00;100943.50;5024810;28;20045;-58
2024/01/28 03:07:37;;;;;;;1.00;1.00;;;;;;;-2.77;100.00;100935.03;5042592;28;20044;-59
2024/01/28 03:10:05;;;;;;;1.00;1.00;;;;;;;-2.72;100.00;100934.66;5026382;28;20068;-58
2024/01/28 03:12:33;;;;;;;0.93;0.93;;;;;;;-2.75;100.00;100938.38;5044077;28;20158;-58
2024/01/28 03:15:01;;;;;;;0.90;0.90;;;;;;;-2.84;100.00;100936.44;5036190;28;20136;-59
2024/01/28 03:17:28;;;;;;;1.00;1.00;;;;;;;-2.91;100.00;100933.44;5030022;28;20458;-58
2024/01/28 03:19:55;;;;;;;0.98;0.98;;;;;;;-2.99;100.00;100930.53;5043527;28;20049;-58
2024/01/28 03:22:22;;;;;;;1.00;1.00;;;;;;;-3.07;100.00;100931.13;5041486;28;20044;-58
2024/01/28 03:24:51;;;;;;;1.10;1.10;;;;;;;-2.81;100.00;100936.22;5037222;28;20041;-59
2024/01/28 03:27:18;;;;;;;1.10;1.10;;;;;;;-2.84;100.00;100929.41;5039398;28;20102;-59
2024/01/28 03:29:45;;;;;;;0.90;0.90;;;;;;;-2.97;100.00;100919.91;5046192;28;20053;-59
2024/01/28 03:32:14;;;;;;;0.98;0.98;;;;;;;-2.74;100.00;100900.69;5043012;28;20060;-58
2024/01/28 03:34:41;;;;;;;1.10;1.10;;;;;;;-2.68;100.00;100896.75;5043227;28;20095;-59
2024/01/28 03:37:08;;;;;;;0.90;0.90;;;;;;;-2.35;100.00;100895.97;5043877;28;20040;-59
2024/01/28 03:39:35;;;;;;;1.00;1.00;;;;;;;-2.66;100.00;100903.56;5045937;28;20048;-59
2024/01/28 03:42:03;;;;;;;1.08;1.08;;;;;;;-3.05;100.00;100907.38;5024202;28;20053;-59
2024/01/28 03:44:30;;;;;;;1.00;1.00;;;;;;;-3.43;100.00;100902.31;5041852;28;20060;-59
2024/01/28 03:46:58;;;;;;;1.00;1.00;;;;;;;-3.47;100.00;100897.31;5044269;28;20033;-58
2024/01/28 03:49:27;;;;;;;0.90;0.90;;;;;;;-3.51;100.00;100895.00;5044211;28;20559;-58
2024/01/28 03:51:54;;;;;;;1.00;1.00;;;;;;;-3.63;100.00;100893.28;5025812;28;21471;-58
2024/01/28 03:54:21;;;;;;;1.00;1.00;;;;;;;-3.25;100.00;100891.31;5046248;28;20670;-58
2024/01/28 03:56:49;;;;;;;0.95;0.95;;;;;;;-2.43;100.00;100887.84;5043102;28;20496;-59
2024/01/28 03:59:16;;;;;;;1.08;1.08;;;;;;;-2.28;100.00;100885.81;5043621;28;20041;-58
2024/01/28 04:01:43;;;;;;;0.90;0.90;;;;;;;-2.47;100.00;100879.38;5041749;28;20139;-58
2024/01/28 04:04:10;;;;;;;1.05;1.05;;;;;;;-2.53;100.00;100882.47;5044607;28;20076;-58
2024/01/28 04:06:44;;;;;;;1.00;1.00;;;;;;;-2.78;100.00;100877.41;5043515;28;20068;-58
2024/01/28 04:09:11;;;;;;;0.90;0.90;;;;;;;-3.06;100.00;100879.47;5025782;28;20041;-58
2024/01/28 04:11:38;;;;;;;1.10;1.10;;;;;;;-3.49;100.00;100865.13;5044194;28;20132;-58
2024/01/28 04:14:05;;;;;;;0.90;0.90;;;;;;;-3.33;100.00;100862.19;5043258;28;21562;-59
2024/01/28 04:16:32;;;;;;;1.10;1.10;;;;;;;-3.35;100.00;100866.72;5017935;28;20037;-58
2024/01/28 04:18:59;;;;;;;1.00;1.00;;;;;;;-3.38;100.00;100869.56;5043544;28;20095;-59
2024/01/28 04:21:28;;;;;;;1.00;1.00;;;;;;;-3.61;100.00;100879.13;5043995;28;20513;-58
2024/01/28 04:23:58;;;;;;;1.00;1.00;;;;;;;-3.61;100.00;100875.66;5041805;28;20108;-59
2024/01/28 04:26:25;;;;;;;1.00;1.00;;;;;;;-3.47;100.00;100878.09;5024601;28;20069;-58
2024/01/28 04:28:52;;;;;;;1.00;1.00;;;;;;;-3.47;100.00;100871.09;5043627;28;20044;-58
2024/01/28 04:31:19;;;;;;;1.00;1.00;;;;;;;-3.45;100.00;100873.59;5043720;28;20045;-58
2024/01/28 04:33:46;;;;;;;1.08;1.08;;;;;;;-3.31;100.00;100885.69;5042425;28;20759;-58
2024/01/28 04:36:13;;;;;;;1.00;1.00;;;;;;;-3.29;100.00;100874.16;5038207;28;20057;-58
2024/01/28 04:38:40;;;;;;;1.00;1.00;;;;;;;-3.44;100.00;100879.66;5041654;28;20049;-58
2024/01/28 04:41:09;;;;;;;0.98;0.98;;;;;;;-3.39;100.00;100875.78;5036865;28;20052;-58
2024/01/28 04:43:38;;;;;;;1.00;1.00;;;;;;;-3.54;100.00;100869.03;5038711;28;20041;-59
2024/01/28 04:46:05;;;;;;;1.00;1.00;;;;;;;-3.60;100.00;100869.47;5041907;28;20056;-58
2024/01/28 04:48:32;;;;;;;1.00;1.00;;;;;;;-3.18;100.00;100864.66;5042058;28;20048;-58
2024/01/28 04:50:59;;;;;;;1.00;1.00;;;;;;;-3.33;100.00;100862.19;5042777;28;20406;-58
2024/01/28 04:53:26;;;;;;;0.90;0.90;;;;;;;-3.38;100.00;100858.25;5023935;28;20526;-58
2024/01/28 04:55:53;;;;;;;1.00;1.00;;;;;;;-3.43;100.00;100852.50;5042731;28;20043;-58
2024/01/28 04:58:22;;;;;;;1.00;1.00;;;;;;;-3.35;100.00;100847.53;5034807;28;20044;-58
2024/01/28 05:00:49;;;;;;;1.10;1.10;;;;;;;-3.16;100.00;100849.63;5041379;28;20050;-58
2024/01/28 05:03:16;;;;;;;1.10;1.10;;;;;;;-3.31;100.00;100843.75;5027127;28;20552;-58
2024/01/28 05:05:43;;;;;;;0.95;0.95;;;;;;;-3.45;100.00;100841.28;5041280;28;20462;-58
2024/01/28 05:08:10;;;;;;;1.10;1.10;;;;;;;-3.67;100.00;100842.00;5039937;28;20049;-58
2024/01/28 05:10:38;;;;;;;1.00;1.00;;;;;;;-3.38;100.00;100850.38;5036850;28;20374;-58
2024/01/28 05:13:05;;;;;;;1.00;1.00;;;;;;;-3.44;100.00;100843.81;5041042;28;20507;-59
2024/01/28 05:15:34;;;;;;;0.98;0.98;;;;;;;-3.59;100.00;100844.94;5042254;28;20048;-58
2024/01/28 05:18:01;;;;;;;1.10;1.10;;;;;;;-3.71;100.00;100842.25;5041775;28;20095;-58
2024/01/28 05:20:28;;;;;;;1.00;1.00;;;;;;;-3.84;100.00;100841.47;5042811;28;20110;-58
2024/01/28 05:22:59;;;;;;;1.10;1.10;;;;;;;-3.83;100.00;100847.53;5041300;28;20057;-58
2024/01/28 05:25:27;;;;;;;0.90;0.90;;;;;;;-4.15;100.00;100853.28;5042118;28;20052;-58
2024/01/28 05:27:55;;;;;;;1.10;1.10;;;;;;;-4.24;100.00;100848.66;5041293;28;20056;-58
2024/01/28 05:30:22;;;;;;;0.90;0.90;;;;;;;-4.12;100.00;100855.66;5040186;28;20048;-58
2024/01/28 05:32:51;;;;;;;0.90;0.90;;;;;;;-3.94;100.00;100845.69;5042357;28;20091;-58
2024/01/28 05:35:18;;;;;;;1.10;1.10;;;;;;;-3.86;100.00;100850.38;5042865;28;20099;-58
2024/01/28 05:37:45;;;;;;;1.00;1.00;;;;;;;-3.86;100.00;100848.59;5042318;28;20402;-58
2024/01/28 05:40:13;;;;;;;1.02;1.02;;;;;;;-3.85;100.00;100852.88;5041795;28;20044;-58
2024/01/28 05:42:40;;;;;;;1.00;1.00;;;;;;;-3.55;100.00;100846.38;5020225;28;20513;-58
2024/01/28 05:45:09;;;;;;;1.08;1.08;;;;;;;-3.78;100.00;100845.41;5039686;28;20053;-58
2024/01/28 05:47:36;;;;;;;0.90;0.90;;;;;;;-3.61;100.00;100847.66;5041789;28;20414;-58
2024/01/28 05:50:05;;;;;;;0.93;0.93;;;;;;;-3.73;100.00;100849.38;5023994;28;20049;-58
2024/01/28 05:52:32;;;;;;;1.10;1.10;;;;;;;-3.71;100.00;100842.25;5035489;28;20349;-58
2024/01/28 05:54:59;;;;;;;1.00;1.00;;;;;;;-3.37;100.00;100844.19;5042133;28;20049;-58
2024/01/28 05:57:26;;;;;;;1.00;1.00;;;;;;;-3.43;100.00;100849.88;5041403;28;20041;-58
2024/01/28 05:59:53;;;;;;;1.00;1.00;;;;;;;-3.63;100.00;100851.34;5043886;28;20041;-58
2024/01/28 06:02:20;;;;;;;1.00;1.00;;;;;;;-3.75;100.00;100846.03;5049392;28;20048;-58
2024/01/28 06:04:47;;;;;;;1.00;1.00;;;;;;;-3.70;100.00;100851.75;5048930;28;20052;-58
2024/01/28 06:07:16;;;;;;;1.00;1.00;;;;;;;-3.75;100.00;100850.44;5010996;28;20095;-58
2024/01/28 06:09:43;;;;;;;0.88;0.88;;;;;;;-3.81;100.00;100849.09;5046194;28;20609;-58
2024/01/28 06:12:10;;;;;;;1.08;1.08;;;;;;;-3.97;100.00;100846.75;5047993;28;20572;-58
2024/01/28 06:14:37;;;;;;;1.00;1.00;;;;;;;-3.87;100.00;100851.31;5047287;28;20029;-58
2024/01/28 06:17:04;;;;;;;0.90;0.90;;;;;;;-4.08;100.00;100848.44;5046375;28;20116;-58
2024/01/28 06:19:31;;;;;;;1.08;1.08;;;;;;;-4.00;100.00;100843.50;5048291;28;20114;-58
2024/01/28 06:22:01;;;;;;;1.00;1.00;;;;;;;-4.02;100.00;100846.25;5028223;28;20156;-58
2024/01/28 06:24:30;;;;;;;0.97;0.97;;;;;;;-4.00;100.00;100848.72;5046430;28;20143;-58
2024/01/28 06:26:58;;;;;;;1.00;1.00;;;;;;;-4.13;100.00;100849.59;5027701;28;20053;-58
2024/01/28 06:29:25;;;;;;;1.00;1.00;;;;;;;-4.23;100.00;100848.56;5049304;28;20535;-58
2024/01/28 06:31:52;;;;;;;0.90;0.90;;;;;;;-4.10;100.00;100835.44;5047458;28;20049;-58
2024/01/28 06:34:20;;;;;;;1.00;1.00;;;;;;;-3.96;100.00;100842.34;5024160;28;20036;-58
2024/01/28 06:36:47;;;;;;;1.10;1.10;;;;;;;-3.77;100.00;100842.69;5043450;28;20136;-58
2024/01/28 06:39:14;;;;;;;1.00;1.00;;;;;;;-3.93;100.00;100836.88;5048126;28;20056;-58
2024/01/28 06:41:43;;;;;;;1.00;1.00;;;;;;;-4.27;100.00;100848.88;5048003;28;20544;-59
2024/01/28 06:44:10;;;;;;;0.98;0.98;;;;;;;-3.82;100.00;100836.97;5046624;28;20048;-58
2024/01/28 06:46:37;;;;;;;1.00;1.00;;;;;;;-3.42;100.00;100835.81;5048059;28;20376;-58
2024/01/28 06:49:05;;;;;;;1.00;1.00;;;;;;;-3.50;100.00;100829.34;5048854;28;20701;-58
2024/01/28 06:51:32;;;;;;;1.02;1.02;;;;;;;-3.51;100.00;100829.47;5047900;28;20045;-58
2024/01/28 06:53:59;;;;;;;1.00;1.00;;;;;;;-3.52;100.00;100831.28;5045110;28;20076;-58
2024/01/28 06:56:27;;;;;;;1.00;1.00;;;;;;;-3.80;100.00;100832.41;5048421;28;20123;-58
2024/01/28 06:58:55;;;;;;;1.00;1.00;;;;;;;-3.99;100.00;100832.09;5044820;28;20099;-58
2024/01/28 07:01:22;;;;;;;1.10;1.10;;;;;;;-3.83;100.00;100831.81;5044789;28;20636;-58
2024/01/28 07:03:50;;;;;;;1.10;1.10;;;;;;;-3.76;100.00;100833.88;5041582;28;20045;-59
2024/01/28 07:06:17;;;;;;;1.00;1.00;;;;;;;-3.89;100.00;100840.97;5042248;28;20052;-58
2024/01/28 07:08:44;;;;;;;1.00;1.00;;;;;;;-3.87;100.00;100839.03;5028490;28;20049;-58
2024/01/28 07:11:12;;;;;;;1.00;1.00;;;;;;;-3.60;100.00;100836.22;5043771;28;20044;-59
2024/01/28 07:13:40;;;;;;;1.00;1.00;;;;;;;-3.45;100.00;100836.88;5044172;28;20517;-59
2024/01/28 07:16:09;;;;;;;0.95;0.95;;;;;;;-3.37;100.00;100831.06;5042429;28;20036;-59
2024/01/28 07:18:36;;;;;;;1.00;1.00;;;;;;;-3.27;100.00;100830.28;5043071;28;20051;-59
2024/01/28 07:21:04;;;;;;;0.95;0.95;;;;;;;-3.33;100.00;100829.91;5026863;28;20052;-58
2024/01/28 07:23:31;;;;;;;1.10;1.10;;;;;;;-3.21;100.00;100833.41;5044582;28;20373;-59
2024/01/28 07:25:58;;;;;;;0.90;0.90;;;;;;;-2.95;100.00;100840.13;5043653;28;20059;-58
2024/01/28 07:28:26;;;;;;;0.95;0.95;;;;;;;-3.40;100.00;100839.16;5039166;28;20127;-59
2024/01/28 07:30:53;;;;;;;0.90;0.90;;;;;;;-3.63;100.00;100848.72;5042373;28;20044;-59
2024/01/28 07:33:21;;;;;;;0.93;0.93;;;;;;;-3.83;100.00;100845.75;5024885;28;20045;-59
2024/01/28 07:35:48;;;;;;;1.00;1.00;;;;;;;-3.95;100.00;100846.63;5043971;28;20041;-59
2024/01/28 07:38:15;;;;;;;1.00;1.00;;;;;;;-3.74;100.00;100842.47;5045896;28;20037;-59
2024/01/28 07:40:42;;;;;;;1.00;1.00;;;;;;;-3.49;100.00;100844.16;5044896;28;20044;-59
2024/01/28 07:43:10;;;;;;;1.00;1.00;;;;;;;-3.43;100.00;100842.84;5036587;28;20091;-59
2024/01/28 07:45:38;;;;;;;1.00;1.00;;;;;;;-3.55;100.00;100844.56;5011991;28;20053;-59
2024/01/28 07:48:05;;;;;;;1.00;1.00;;;;;;;-3.49;100.00;100840.69;5040240;28;20075;-59
2024/01/28 07:50:34;;;;;;;1.00;1.00;;;;;;;-3.66;100.00;100839.28;5044236;28;20045;-59
2024/01/28 07:53:01;;;;;;;0.95;0.95;;;;;;;-3.50;100.00;100849.50;5040656;28;20048;-58
2024/01/28 07:55:28;;;;;;;1.13;1.13;;;;;;;-3.33;100.00;100837.78;5020684;28;20045;-58
2024/01/28 07:57:56;;;;;;;0.90;0.90;;;;;;;-3.21;100.00;100843.91;5042491;28;20137;-58
2024/01/28 08:00:24;;;;;;;1.00;1.00;;;;;;;-3.27;100.00;100838.16;5021119;28;20444;-58
2024/01/28 08:02:51;;;;;;;1.00;1.00;;;;;;;-3.34;100.00;100844.81;5037243;28;20349;-58
2024/01/28 08:05:19;;;;;;;1.00;1.00;;;;;;;-3.54;100.00;100845.44;5043894;28;20044;-57
2024/01/28 08:07:47;;;;;;;1.10;1.10;;;;;;;-3.10;100.00;100836.06;5040059;28;20075;-58
2024/01/28 08:10:14;;;;;;;1.00;1.00;;;;;;;-2.61;100.00;100837.59;5042481;28;20045;-58
2024/01/28 08:12:42;;;;;;;1.08;1.08;;;;;;;-1.60;100.00;100834.84;5042697;28;20488;-59
2024/01/28 08:15:10;;;;;;;1.00;1.00;;;;;;;-0.66;100.00;100840.25;5042119;28;20037;-59
2024/01/28 08:17:37;;;;;;;1.00;1.00;;;;;;;-0.30;100.00;100836.25;5041974;28;20049;-58
2024/01/28 08:20:05;;;;;;;0.90;0.90;;;;;;;0.72;100.00;100832.53;5042520;28;20057;-60
2024/01/28 08:22:32;;;;;;;0.80;0.80;;;;;;;1.06;100.00;100841.69;5044633;28;20057;-59
2024/01/28 08:25:02;;;;;;;0.80;0.80;;;;;;;0.81;99.02;100842.28;5041162;28;20060;-59
2024/01/28 08:27:30;;;;;;;0.85;0.85;;;;;;;0.56;98.93;100839.22;5037959;28;20041;-59
2024/01/28 08:29:57;;;;;;;0.90;0.90;;;;;;;1.39;97.14;100839.53;5019224;28;20182;-58
2024/01/28 08:32:24;;;;;;;0.70;0.70;;;;;;;1.98;92.52;100841.97;5042589;28;20173;-59
2024/01/28 08:34:52;;;;;;;0.90;0.90;;;;;;;1.80;90.71;100840.09;5037967;28;20051;-58
2024/01/28 08:37:21;;;;;;;0.80;0.80;;;;;;;1.34;94.34;100843.59;5042642;28;20049;-59
2024/01/28 08:39:48;;;;;;;0.88;0.88;;;;;;;1.27;94.76;100840.69;5043243;28;20064;-59
2024/01/28 08:42:18;;;;;;;0.88;0.88;;;;;;;1.16;100.00;100840.84;5042110;28;20065;-59
2024/01/28 08:44:46;;;;;;;0.77;0.77;;;;;;;2.01;93.59;100837.22;5045104;28;20076;-60
2024/01/28 08:47:14;;;;;;;0.80;0.80;;;;;;;2.41;91.41;100843.09;5041576;28;20534;-59
2024/01/28 08:49:41;;;;;;;0.80;0.80;;;;;;;2.75;86.07;100846.75;5042779;28;20041;-59
2024/01/28 08:52:08;;;;;;;0.65;0.65;;;;;;;2.98;86.49;100848.91;5017026;28;20510;-59
2024/01/28 08:54:36;;;;;;;0.60;0.60;;;;;;;2.38;87.19;100849.53;5042552;28;20123;-59
2024/01/28 08:57:05;;;;;;;0.65;0.65;;;;;;;2.67;90.50;100849.31;5040177;28;20041;-59
2024/01/28 08:59:34;;;;;;;0.70;0.70;;;;;;;2.48;89.46;100846.81;5022872;28;20052;-59
2024/01/28 09:02:01;;;;;;;0.60;0.60;;;;;;;2.51;90.50;100846.50;5039403;28;20163;-59
2024/01/28 09:04:28;;;;;;;0.52;0.52;;;;;;;2.03;91.56;100839.72;5040502;28;20045;-59
2024/01/28 09:06:55;;;;;;;0.70;0.70;;;;;;;2.36;90.45;100839.06;5039389;28;20125;-58
2024/01/28 09:09:22;;;;;;;0.57;0.57;;;;;;;2.03;91.80;100834.41;5040706;28;20041;-59
2024/01/28 09:11:49;;;;;;;0.60;0.60;;;;;;;1.92;93.04;100833.66;5039047;28;20044;-59
2024/01/28 09:14:16;;;;;;;0.68;0.68;;;;;;;2.19;93.58;100825.81;5022956;28;20136;-59
2024/01/28 09:16:45;;;;;;;0.60;0.60;;;;;;;2.67;91.03;100836.09;5021446;28;20090;-59
2024/01/28 09:19:20;;;;;;;0.60;0.60;;;;;;;2.81;93.28;100842.66;5041078;28;20424;-59
2024/01/28 09:21:49;;;;;;;0.50;0.50;;;;;;;2.97;88.99;100841.94;5040854;28;20278;-60
2024/01/28 09:24:17;;;;;;;0.50;0.50;;;;;;;3.50;87.00;100842.81;5041857;28;20048;-59
2024/01/28 09:26:44;;;;;;;0.57;0.57;;;;;;;3.45;87.10;100838.00;5023084;28;20424;-59
2024/01/28 09:29:11;;;;;;;0.50;0.50;;;;;;;3.54;87.37;100837.03;5040224;28;20045;-59
2024/01/28 09:31:38;;;;;;;0.50;0.50;;;;;;;3.73;86.33;100835.97;5041647;28;20478;-59
2024/01/28 09:34:06;;;;;;;0.60;0.60;;;;;;;3.92;84.67;100831.41;5039414;28;20041;-59
2024/01/28 09:36:33;;;;;;;0.50;0.50;;;;;;;3.83;84.60;100843.81;5025008;28;20044;-59
2024/01/28 09:39:01;;;;;;;0.45;0.45;;;;;;;4.28;80.56;100834.69;5040011;28;20053;-58
2024/01/28 09:41:32;;;;;;;0.52;0.52;;;;;;;4.61;79.61;100838.22;5019485;28;20045;-57
2024/01/28 09:44:00;;;;;;;0.40;0.40;;;;;;;4.44;79.47;100841.84;5023182;28;20514;-58
2024/01/28 09:46:27;;;;;;;0.38;0.38;;;;;;;4.07;82.24;100838.63;5040695;28;20045;-58
2024/01/28 09:48:54;;;;;;;0.57;0.57;;;;;;;3.89;82.26;100840.50;5041195;28;20063;-58
2024/01/28 09:51:23;;;;;;;0.60;0.60;;;;;;;4.41;81.65;100847.50;5039154;28;20048;-58
2024/01/28 09:53:50;;;;;;;0.40;0.40;;;;;;;4.62;79.81;100847.00;5035049;28;20470;-59
2024/01/28 09:56:18;;;;;;;0.45;0.45;;;;;;;4.79;80.13;100851.34;5040757;28;20289;-58
2024/01/28 09:58:45;;;;;;;0.50;0.50;;;;;;;5.09;78.50;100838.41;5037862;28;20061;-58
2024/01/28 10:01:13;;;;;;;0.50;0.50;;;;;;;5.16;77.18;100839.41;5040881;28;20095;-58
2024/01/28 10:03:40;;;;;;;0.50;0.50;;;;;;;5.41;77.06;100835.69;5041000;28;20048;-58
2024/01/28 10:06:07;;;;;;;0.47;0.47;;;;;;;5.07;78.81;100835.09;5015792;28;20218;-58
2024/01/28 10:08:36;;;;;;;0.40;0.40;;;;;;;5.04;79.48;100827.44;5021804;28;20255;-60
2024/01/28 10:11:03;;;;;;;0.40;0.40;;;;;;;5.65;76.14;100828.66;5041227;28;20560;-58
2024/01/28 10:13:30;;;;;;;0.50;0.50;;;;;;;5.44;78.00;100831.88;5041008;28;20090;-58
2024/01/28 10:15:57;;;;;;;0.40;0.40;;;;;;;5.84;74.55;100828.28;5015123;28;20045;-58
2024/01/28 10:18:24;;;;;;;0.50;0.50;;;;;;;5.55;76.38;100833.34;5038603;28;20041;-58
2024/01/28 10:20:51;;;;;;;0.40;0.40;;;;;;;5.54;76.70;100829.88;5038718;28;20072;-58
2024/01/28 10:23:18;;;;;;;0.40;0.40;;;;;;;5.90;75.30;100820.59;5040755;28;20056;-58
2024/01/28 10:25:47;;;;;;;0.50;0.50;;;;;;;6.17;73.02;100812.19;5040745;28;20049;-58
2024/01/28 10:28:16;;;;;;;0.40;0.40;;;;;;;6.52;72.69;100815.28;5039528;28;20069;-58
2024/01/28 10:30:44;;;;;;;0.40;0.40;;;;;;;6.32;71.70;100814.94;5039706;28;20045;-58
2024/01/28 10:33:11;;;;;;;0.38;0.38;;;;;;;6.36;70.83;100804.75;5041026;28;20423;-58
2024/01/28 10:35:38;;;;;;;0.40;0.40;;;;;;;6.77;71.75;100812.47;5041698;28;20383;-58
2024/01/28 10:38:05;;;;;;;0.40;0.40;;;;;;;6.06;72.78;100815.22;5023576;28;20519;-58
2024/01/28 10:40:34;;;;;;;0.30;0.30;;;;;;;6.24;73.04;100812.28;5039904;28;20045;-58
2024/01/28 10:43:03;;;;;;;0.40;0.40;;;;;;;6.08;74.14;100805.22;5032962;28;20045;-59
2024/01/28 10:45:31;;;;;;;0.28;0.28;;;;;;;6.20;74.06;100797.69;5016028;28;20057;-58
2024/01/28 10:48:03;;;;;;;0.43;0.43;;;;;;;6.23;76.03;100792.81;5042381;28;20060;-58
2024/01/28 10:50:32;;;;;;;0.40;0.40;;;;;;;6.41;74.83;100783.72;5038779;28;20450;-58
2024/01/28 10:52:59;;;;;;;0.30;0.30;;;;;;;5.98;76.67;100783.31;5044462;28;20037;-58
2024/01/28 10:55:28;;;;;;;0.32;0.32;;;;;;;6.21;77.18;100786.84;5023087;28;20040;-58
2024/01/28 10:57:55;;;;;;;0.40;0.40;;;;;;;6.60;75.00;100785.94;5027175;28;20159;-58
2024/01/28 11:00:24;;;;;;;0.40;0.40;;;;;;;7.18;70.89;100778.25;5042496;28;20569;-59
2024/01/28 11:02:54;;;;;;;0.35;0.35;;;;;;;7.01;71.54;100777.56;5019319;28;20068;-58
2024/01/28 11:05:21;;;;;;;0.30;0.30;;;;;;;7.10;73.48;100767.66;5042404;28;20528;-57
2024/01/28 11:07:49;;;;;;;0.40;0.40;;;;;;;6.77;74.64;100769.81;5025085;28;20053;-58
2024/01/28 11:10:16;;;;;;;0.30;0.30;;;;;;;6.98;73.67;100772.59;5026865;28;20037;-58
2024/01/28 11:12:44;;;;;;;0.30;0.30;;;;;;;6.62;77.06;100765.25;5016617;28;20037;-58
2024/01/28 11:15:12;;;;;;;0.30;0.30;;;;;;;7.05;74.99;100760.22;5038580;28;20503;-58
2024/01/28 11:17:41;;;;;;;0.40;0.40;;;;;;;7.24;73.73;100755.34;5021851;28;20048;-58
2024/01/28 11:20:09;;;;;;;0.40;0.40;;;;;;;6.69;74.58;100752.88;5042429;28;20273;-57
2024/01/28 11:22:50;;;;;;;0.30;0.30;;;;;;;7.15;74.84;100749.28;5039391;28;20048;-58